Time;durP1;ratioP1;P1;durP2;ratioP2;P2;SDS_P1;SDS_P2;PMS_P1;PMS_P2;Temp;Humidity;BMP_temperature;BMP_pressure;BME280_temperature;BME280_humidity;BME280_pressure;Samples;Min_cycle;Max_cycle;Signal;HPM_P1;HPM_P2
2023/10/09 00:03:03;;;;;;;17.77;7.18;;;15.10;99.90;;;;;;4964911;28;20529;-58
2023/10/09 00:08:20;;;;;;;13.98;6.85;;;15.10;99.90;;;;;;4963687;28;20047;-60
2023/10/09 00:10:53;;;;;;;12.68;6.75;;;15.10;99.90;;;;;;4964435;28;20494;-58
2023/10/09 00:13:30;;;;;;;13.82;6.78;;;15.10;99.90;;;;;;4963645;28;20054;-59
2023/10/09 00:16:32;;;;;;;17.23;8.00;;;15.10;99.90;;;;;;4979025;28;20073;-60
2023/10/09 00:18:53;;;;;;;14.85;7.20;;;15.10;99.90;;;;;;4963300;28;20401;-58
2023/10/09 00:21:20;;;;;;;16.58;8.07;;;15.10;99.90;;;;;;4963843;28;20035;-55
2023/10/09 00:23:55;;;;;;;15.10;7.25;;;15.10;99.90;;;;;;4962231;28;20493;-59
2023/10/09 00:26:25;;;;;;;15.07;8.00;;;15.10;99.90;;;;;;4959095;28;20046;-57
2023/10/09 00:28:51;;;;;;;16.92;7.80;;;15.10;99.90;;;;;;4947028;28;20047;-58
2023/10/09 00:31:29;;;;;;;13.40;7.43;;;15.10;99.90;;;;;;4964526;28;20051;-58
2023/10/09 00:34:01;;;;;;;17.95;8.40;;;15.10;99.90;;;;;;4962230;28;20363;-59
2023/10/09 00:36:29;;;;;;;13.35;8.80;;;15.10;99.90;;;;;;4961266;28;20081;-58
2023/10/09 00:38:59;;;;;;;16.77;8.50;;;15.10;99.90;;;;;;4965122;28;20077;-59
2023/10/09 00:41:25;;;;;;;17.80;8.98;;;15.10;99.90;;;;;;4966992;28;20506;-59
2023/10/09 00:43:52;;;;;;;17.92;9.35;;;15.10;99.90;;;;;;4965607;28;20078;-58
2023/10/09 00:49:02;;;;;;;16.83;9.10;;;15.10;99.90;;;;;;4982036;28;20138;-58
2023/10/09 00:51:34;;;;;;;16.60;8.75;;;15.10;99.90;;;;;;4964121;28;20043;-59
2023/10/09 00:54:07;;;;;;;19.23;9.23;;;15.10;99.90;;;;;;4966929;28;20046;-58
2023/10/09 00:56:44;;;;;;;16.80;9.32;;;15.10;99.90;;;;;;4963785;28;20039;-58
2023/10/09 00:59:16;;;;;;;20.83;10.85;;;15.10;99.90;;;;;;4962930;28;20121;-57
2023/10/09 01:04:29;;;;;;;14.82;8.65;;;15.10;99.90;;;;;;4963418;28;20053;-60
2023/10/09 01:07:08;;;;;;;15.77;9.43;;;15.10;99.90;;;;;;4959521;28;20054;-58
2023/10/09 01:09:43;;;;;;;21.52;9.82;;;15.10;99.90;;;;;;4965419;28;20534;-58
2023/10/09 01:12:16;;;;;;;18.38;9.75;;;15.10;99.90;;;;;;4963774;28;20481;-56
2023/10/09 01:14:43;;;;;;;17.13;10.85;;;15.00;99.90;;;;;;4951646;28;20082;-55
2023/10/09 01:17:10;;;;;;;22.83;12.45;;;15.00;99.90;;;;;;4965611;28;20041;-59
2023/10/09 01:19:36;;;;;;;22.52;12.00;;;15.00;99.90;;;;;;4966494;28;20034;-60
2023/10/09 01:22:12;;;;;;;22.10;11.88;;;15.00;99.90;;;;;;4966792;28;20054;-57
2023/10/09 01:24:38;;;;;;;19.38;12.43;;;15.00;99.90;;;;;;4965322;28;20666;-59
2023/10/09 01:27:11;;;;;;;23.10;13.55;;;15.00;99.90;;;;;;4966797;28;20413;-57
2023/10/09 01:29:36;;;;;;;22.45;12.77;;;15.00;99.90;;;;;;4966765;28;20050;-59
2023/10/09 01:32:02;;;;;;;21.15;12.45;;;15.00;99.90;;;;;;4949956;28;20112;-58
2023/10/09 01:34:42;;;;;;;24.63;13.95;;;15.00;99.90;;;;;;4963512;28;20278;-60
2023/10/09 01:37:19;;;;;;;23.88;14.50;;;15.00;99.90;;;;;;4966957;28;20053;-60
2023/10/09 01:39:58;;;;;;;23.60;14.80;;;15.00;99.90;;;;;;4964889;28;20112;-60
2023/10/09 01:44:58;;;;;;;26.13;14.98;;;15.00;99.90;;;;;;4972587;28;20142;-59
2023/10/09 01:47:25;;;;;;;27.70;15.93;;;15.00;99.90;;;;;;4963856;28;20042;-58
2023/10/09 01:49:53;;;;;;;28.13;15.90;;;15.00;99.90;;;;;;4966457;28;20134;-60
2023/10/09 01:52:20;;;;;;;31.75;17.77;;;15.00;99.90;;;;;;4964462;28;20503;-60
2023/10/09 01:54:49;;;;;;;27.88;17.02;;;15.00;99.90;;;;;;4966204;28;20058;-58
2023/10/09 01:57:22;;;;;;;31.48;19.10;;;15.00;99.90;;;;;;4964079;28;20042;-57
2023/10/09 01:59:55;;;;;;;38.00;19.65;;;15.00;99.90;;;;;;4966249;28;20082;-58
2023/10/09 02:02:25;;;;;;;32.78;19.05;;;15.00;99.90;;;;;;4966059;28;20038;-58
2023/10/09 02:05:07;;;;;;;35.28;19.25;;;15.00;99.90;;;;;;4964997;28;20050;-59
2023/10/09 02:07:51;;;;;;;32.17;18.95;;;15.00;99.90;;;;;;4958366;28;20047;-59
2023/10/09 02:13:06;;;;;;;36.63;19.95;;;15.00;99.90;;;;;;4968662;28;20340;-59
2023/10/09 02:15:51;;;;;;;41.50;21.55;;;15.00;99.90;;;;;;4951207;28;20043;-59
2023/10/09 02:26:25;;;;;;;33.42;20.70;;;15.00;99.90;;;;;;4968756;28;20081;-60
2023/10/09 02:28:58;;;;;;;38.33;23.08;;;15.00;99.90;;;;;;4969870;28;20524;-58
2023/10/09 02:31:40;;;;;;;36.33;20.70;;;15.00;99.90;;;;;;4969453;28;20039;-58
2023/10/09 02:34:10;;;;;;;36.50;20.30;;;15.00;99.90;;;;;;4966468;28;20073;-58
2023/10/09 02:36:43;;;;;;;37.30;23.13;;;15.00;99.90;;;;;;4969746;28;20082;-59
2023/10/09 02:39:26;;;;;;;40.63;23.40;;;15.00;99.90;;;;;;4967712;28;20413;-60
2023/10/09 02:42:01;;;;;;;36.10;22.73;;;15.00;99.90;;;;;;4969664;28;20051;-59
2023/10/09 02:44:32;;;;;;;41.42;25.92;;;15.00;99.90;;;;;;4973721;28;20510;-59
2023/10/09 02:46:58;;;;;;;40.83;24.35;;;15.00;99.90;;;;;;4969638;28;20043;-60
2023/10/09 02:49:27;;;;;;;41.58;24.58;;;15.00;99.90;;;;;;4970220;28;20058;-59
2023/10/09 02:51:53;;;;;;;46.85;28.13;;;15.00;99.90;;;;;;4969854;28;20051;-60
2023/10/09 02:54:34;;;;;;;45.63;27.90;;;15.00;99.90;;;;;;4969314;28;20042;-58
2023/10/09 02:57:07;;;;;;;39.03;23.75;;;15.10;99.90;;;;;;4966915;28;20046;-57
2023/10/09 02:59:41;;;;;;;50.83;28.17;;;15.20;99.90;;;;;;4965178;28;20474;-59
2023/10/09 03:02:07;;;;;;;49.83;28.35;;;15.20;99.90;;;;;;4967781;28;20506;-59
2023/10/09 03:04:33;;;;;;;54.67;31.05;;;15.30;99.90;;;;;;4969484;28;20038;-58
2023/10/09 03:07:03;;;;;;;44.65;27.88;;;15.30;99.90;;;;;;4967578;28;20714;-58
2023/10/09 03:09:29;;;;;;;40.08;25.50;;;15.40;99.90;;;;;;4968579;28;20047;-60
2023/10/09 03:12:03;;;;;;;47.30;30.60;;;15.40;99.90;;;;;;4969300;28;20046;-59
2023/10/09 03:14:35;;;;;;;47.92;28.45;;;15.50;99.90;;;;;;4969010;28;20043;-58
2023/10/09 03:17:01;;;;;;;52.47;28.45;;;15.50;99.90;;;;;;4964327;28;20514;-60
2023/10/09 03:19:28;;;;;;;45.10;27.80;;;15.50;99.90;;;;;;4970014;28;20048;-60
2023/10/09 03:21:57;;;;;;;43.60;26.98;;;15.60;99.90;;;;;;4984476;28;20049;-58
2023/10/09 03:24:24;;;;;;;41.55;26.05;;;15.60;99.90;;;;;;4970196;28;20465;-60
2023/10/09 03:26:49;;;;;;;44.95;26.08;;;15.60;99.90;;;;;;4968078;28;20494;-60
2023/10/09 03:29:19;;;;;;;42.17;26.08;;;15.70;99.90;;;;;;4968469;28;20073;-59
2023/10/09 03:31:46;;;;;;;40.65;24.52;;;15.80;99.90;;;;;;4949511;28;20054;-60
2023/10/09 03:34:12;;;;;;;35.53;22.83;;;15.80;99.90;;;;;;4981797;28;20537;-58
2023/10/09 03:36:38;;;;;;;38.47;21.50;;;15.80;99.90;;;;;;4968300;28;20043;-57
2023/10/09 03:39:20;;;;;;;36.47;22.15;;;15.80;99.90;;;;;;4968639;28;20054;-57
2023/10/09 03:41:50;;;;;;;33.50;21.75;;;15.80;99.90;;;;;;4964810;28;20246;-57
2023/10/09 03:44:18;;;;;;;30.08;19.25;;;15.90;99.90;;;;;;4968167;28;20055;-57
2023/10/09 03:46:45;;;;;;;34.40;21.63;;;15.90;99.90;;;;;;4952685;28;20047;-57
2023/10/09 03:49:13;;;;;;;35.30;19.88;;;15.90;99.90;;;;;;4969869;28;20046;-58
2023/10/09 03:51:39;;;;;;;28.55;18.48;;;16.00;99.90;;;;;;4964747;28;20053;-57
2023/10/09 03:54:09;;;;;;;32.05;19.50;;;16.00;99.90;;;;;;4963891;28;20035;-58
2023/10/09 03:56:34;;;;;;;26.95;17.02;;;16.00;99.90;;;;;;4966436;28;20050;-57
2023/10/09 03:59:03;;;;;;;26.80;16.77;;;16.00;99.90;;;;;;4965322;28;20530;-55
2023/10/09 04:01:29;;;;;;;26.38;16.50;;;16.10;99.90;;;;;;4960677;28;20118;-58
2023/10/09 04:04:03;;;;;;;30.33;16.95;;;16.10;99.90;;;;;;4968398;28;20118;-57
2023/10/09 04:06:32;;;;;;;22.08;14.38;;;16.20;99.90;;;;;;4967905;28;20146;-56
2023/10/09 04:08:59;;;;;;;27.70;15.63;;;16.20;99.90;;;;;;4965262;28;20181;-55
2023/10/09 04:11:25;;;;;;;23.83;14.40;;;16.20;99.90;;;;;;4969058;28;20043;-56
2023/10/09 04:13:59;;;;;;;26.55;14.45;;;16.10;99.90;;;;;;4951678;28;20402;-57
2023/10/09 04:18:57;;;;;;;21.83;12.38;;;16.20;99.90;;;;;;4959874;28;20054;-57
2023/10/09 04:21:36;;;;;;;20.35;11.80;;;16.20;99.90;;;;;;4968377;28;20047;-57
2023/10/09 04:26:46;;;;;;;22.45;11.75;;;16.30;99.90;;;;;;4967726;28;20086;-57
2023/10/09 04:29:28;;;;;;;19.48;12.07;;;16.30;99.90;;;;;;4965988;28;20417;-57
2023/10/09 04:31:55;;;;;;;25.80;12.00;;;16.30;99.90;;;;;;4950784;28;20038;-57
2023/10/09 04:35:19;;;;;;;20.60;10.93;;;16.30;99.90;;;;;;4965438;28;20066;-55
2023/10/09 04:40:13;;;;;;;24.58;11.07;;;16.30;99.90;;;;;;4960061;28;20466;-56
2023/10/09 04:42:46;;;;;;;22.13;10.88;;;16.30;99.90;;;;;;4967247;28;20439;-56
2023/10/09 04:47:58;;;;;;;20.50;11.55;;;16.30;99.90;;;;;;4967486;28;20282;-57
2023/10/09 04:52:56;;;;;;;24.00;11.65;;;16.30;99.90;;;;;;4966136;28;20039;-57
2023/10/09 04:55:38;;;;;;;24.08;10.90;;;16.30;99.90;;;;;;4967170;28;20061;-57
2023/10/09 04:58:13;;;;;;;18.40;10.02;;;16.40;99.90;;;;;;4950870;28;20639;-56
2023/10/09 05:03:12;;;;;;;23.15;10.82;;;16.40;99.90;;;;;;4943038;28;20158;-57
2023/10/09 05:08:21;;;;;;;21.73;10.63;;;16.40;99.90;;;;;;4964109;28;20411;-56
2023/10/09 05:16:28;;;;;;;23.25;11.05;;;16.40;99.90;;;;;;4962416;28;20042;-57
2023/10/09 05:18:59;;;;;;;26.10;9.88;;;16.40;99.90;;;;;;4964464;28;20045;-56
2023/10/09 05:21:36;;;;;;;19.00;10.23;;;16.40;99.90;;;;;;4950705;28;20096;-57
2023/10/09 05:26:50;;;;;;;21.33;10.27;;;16.40;99.90;;;;;;4966025;28;20047;-56
2023/10/09 05:29:19;;;;;;;18.70;9.70;;;16.40;99.90;;;;;;4966681;28;20286;-55
2023/10/09 05:35:29;;;;;;;19.05;9.45;;;16.40;99.90;;;;;;4964774;28;20055;-56
2023/10/09 05:37:25;;;;;;;23.73;10.82;;;16.40;99.90;;;;;;4962007;28;20049;-57
2023/10/09 05:44:55;;;;;;;22.40;9.93;;;16.40;99.90;;;;;;4961409;28;20129;-56
2023/10/09 05:47:57;;;;;;;16.80;9.90;;;16.40;99.90;;;;;;4950357;28;20057;-56
2023/10/09 06:03:23;;;;;;;20.23;9.35;;;16.40;99.90;;;;;;4966892;28;20129;-56
2023/10/09 06:11:38;;;;;;;19.45;9.57;;;16.40;99.90;;;;;;4964935;28;20047;-56
2023/10/09 06:14:04;;;;;;;24.33;10.63;;;16.40;99.90;;;;;;4966242;28;20030;-57
2023/10/09 06:16:43;;;;;;;22.42;9.43;;;16.50;99.90;;;;;;4949118;28;20074;-57
2023/10/09 06:19:12;;;;;;;22.95;9.55;;;16.40;99.90;;;;;;4964335;28;20516;-58
2023/10/09 06:24:22;;;;;;;22.20;9.32;;;16.40;99.90;;;;;;4966371;28;20081;-58
2023/10/09 06:29:50;;;;;;;21.30;9.50;;;16.40;99.90;;;;;;4966639;28;20082;-58
2023/10/09 06:34:56;;;;;;;19.75;9.77;;;16.50;99.90;;;;;;4963323;28;20046;-57
2023/10/09 06:42:43;;;;;;;22.77;10.73;;;16.50;99.90;;;;;;4961530;28;20043;-56
2023/10/09 06:47:56;;;;;;;21.90;8.75;;;16.50;99.90;;;;;;4969757;28;20101;-58
2023/10/09 06:50:25;;;;;;;21.90;10.02;;;16.50;99.90;;;;;;4962367;28;20050;-57
2023/10/09 06:52:57;;;;;;;22.63;10.07;;;16.50;99.90;;;;;;4965562;28;20541;-58
2023/10/09 06:55:37;;;;;;;15.57;7.70;;;16.50;99.90;;;;;;4949880;28;20064;-57
2023/10/09 06:58:09;;;;;;;24.73;9.55;;;16.50;99.90;;;;;;4963959;28;20049;-57
2023/10/09 07:01:14;;;;;;;21.38;10.00;;;16.50;99.90;;;;;;4968939;28;20514;-57
2023/10/09 07:03:51;;;;;;;23.17;9.27;;;16.50;99.90;;;;;;4969956;28;20672;-58
2023/10/09 07:06:24;;;;;;;25.25;10.05;;;16.50;99.90;;;;;;4969010;28;20102;-57
2023/10/09 07:09:42;;;;;;;23.27;9.60;;;16.50;99.90;;;;;;4959228;28;20674;-57
2023/10/09 07:22:23;;;;;;;22.00;8.38;;;16.60;99.90;;;;;;4969278;28;20173;-58
2023/10/09 07:27:48;;;;;;;25.02;10.68;;;16.50;99.90;;;;;;4951583;28;20422;-56
2023/10/09 07:38:08;;;;;;;21.25;10.70;;;16.50;99.90;;;;;;4968326;28;20521;-58
2023/10/09 07:40:54;;;;;;;24.42;9.70;;;16.50;99.90;;;;;;4969042;28;20038;-59
2023/10/09 07:43:35;;;;;;;21.67;9.68;;;16.50;99.90;;;;;;4969316;28;20532;-57
2023/10/09 07:48:40;;;;;;;20.30;9.82;;;16.50;99.90;;;;;;4967527;28;20633;-57
2023/10/09 07:51:12;;;;;;;23.33;9.40;;;16.60;99.90;;;;;;4969983;28;20169;-57
2023/10/09 07:53:44;;;;;;;24.95;10.63;;;16.60;99.90;;;;;;4965299;28;20051;-59
2023/10/09 07:56:20;;;;;;;27.05;11.50;;;16.50;99.90;;;;;;4965491;28;20050;-59
2023/10/09 07:58:47;;;;;;;23.48;10.43;;;16.60;99.90;;;;;;4972323;28;20426;-58
2023/10/09 08:01:34;;;;;;;18.38;9.52;;;16.50;99.90;;;;;;4967563;28;20051;-57
2023/10/09 08:04:13;;;;;;;25.23;10.73;;;16.60;99.90;;;;;;4955821;28;20035;-58
2023/10/09 08:06:44;;;;;;;22.98;10.73;;;16.60;99.90;;;;;;4950722;28;20058;-59
2023/10/09 08:09:38;;;;;;;31.20;11.75;;;16.60;99.90;;;;;;4964500;28;20082;-58
2023/10/09 08:12:14;;;;;;;24.90;10.07;;;16.60;99.90;;;;;;4964345;28;20057;-58
2023/10/09 08:14:45;;;;;;;27.15;11.25;;;16.60;99.90;;;;;;4965761;28;20117;-58
2023/10/09 08:17:13;;;;;;;23.90;9.77;;;16.60;99.90;;;;;;4965473;28;20039;-58
2023/10/09 08:20:11;;;;;;;27.10;10.75;;;16.60;99.90;;;;;;4966758;28;20055;-58
2023/10/09 08:24:56;;;;;;;23.38;10.82;;;16.60;99.90;;;;;;4965681;28;20082;-57
2023/10/09 08:33:02;;;;;;;21.48;10.45;;;16.60;99.90;;;;;;4967648;28;20051;-59
2023/10/09 08:35:33;;;;;;;20.98;10.13;;;16.60;99.90;;;;;;4950801;28;20066;-57
2023/10/09 08:38:07;;;;;;;25.05;10.07;;;16.60;99.90;;;;;;4950896;28;20073;-57
2023/10/09 08:40:38;;;;;;;22.95;9.63;;;16.60;99.90;;;;;;4964080;28;20452;-57
2023/10/09 08:43:14;;;;;;;22.90;9.27;;;16.60;99.90;;;;;;4967218;28;20307;-57
2023/10/09 08:45:44;;;;;;;25.90;9.80;;;16.60;99.90;;;;;;4966927;28;20439;-55
2023/10/09 08:48:17;;;;;;;24.67;9.10;;;16.70;99.90;;;;;;4967467;28;20566;-58
2023/10/09 08:50:45;;;;;;;19.70;8.60;;;16.70;99.90;;;;;;4966177;28;20498;-58
2023/10/09 08:53:15;;;;;;;18.95;8.15;;;16.70;99.90;;;;;;4968401;28;20042;-59
2023/10/09 08:55:43;;;;;;;20.88;9.45;;;16.70;99.90;;;;;;4967026;28;20046;-59
2023/10/09 08:58:20;;;;;;;21.88;8.85;;;16.70;99.90;;;;;;4962738;28;20129;-57
2023/10/09 09:00:47;;;;;;;19.98;8.07;;;16.80;99.90;;;;;;4967166;28;20074;-57
2023/10/09 09:03:16;;;;;;;25.10;9.45;;;16.80;99.90;;;;;;4967145;28;20039;-58
2023/10/09 09:05:56;;;;;;;19.80;7.60;;;16.80;99.90;;;;;;4967220;28;20434;-58
2023/10/09 09:08:28;;;;;;;18.10;8.48;;;16.80;99.90;;;;;;4963627;28;20474;-56
2023/10/09 09:11:11;;;;;;;17.50;8.02;;;16.90;99.90;;;;;;4949909;28;20528;-59
2023/10/09 09:13:50;;;;;;;23.97;9.37;;;16.90;99.90;;;;;;4964743;28;20050;-58
2023/10/09 09:16:31;;;;;;;21.50;9.15;;;16.90;99.90;;;;;;4947473;28;20038;-58
2023/10/09 09:19:17;;;;;;;26.25;9.07;;;16.90;99.90;;;;;;4961102;28;20046;-58
2023/10/09 09:21:49;;;;;;;25.02;9.63;;;16.90;99.90;;;;;;4947576;28;20074;-59
2023/10/09 09:26:58;;;;;;;21.48;8.93;;;17.00;99.90;;;;;;4968032;28;20039;-59
2023/10/09 09:29:38;;;;;;;27.70;9.43;;;17.00;99.90;;;;;;4966575;28;20058;-58
2023/10/09 09:32:20;;;;;;;22.27;9.27;;;16.90;99.90;;;;;;4966088;28;20225;-58
2023/10/09 09:34:49;;;;;;;19.70;8.65;;;17.00;99.90;;;;;;4970062;28;20121;-58
2023/10/09 09:37:50;;;;;;;21.08;9.38;;;17.00;99.90;;;;;;4966774;28;20136;-58
2023/10/09 09:40:32;;;;;;;26.05;8.90;;;17.00;99.90;;;;;;4964185;28;20517;-57
2023/10/09 09:43:05;;;;;;;26.58;9.23;;;17.00;99.90;;;;;;4961810;28;20065;-57
2023/10/09 09:45:37;;;;;;;25.25;9.15;;;17.00;99.90;;;;;;4950758;28;20137;-57
2023/10/09 09:48:10;;;;;;;19.83;8.55;;;17.00;99.90;;;;;;4963067;28;20066;-58
2023/10/09 09:50:54;;;;;;;21.83;9.73;;;17.00;99.90;;;;;;4966661;28;20649;-58
2023/10/09 09:53:23;;;;;;;30.05;10.10;;;17.10;99.90;;;;;;4965110;28;20371;-56
2023/10/09 09:55:59;;;;;;;24.85;10.20;;;17.10;99.90;;;;;;4949181;28;20585;-55
2023/10/09 09:58:32;;;;;;;26.98;10.30;;;17.00;99.90;;;;;;4966453;28;20129;-59
2023/10/09 10:01:07;;;;;;;31.30;11.07;;;17.10;99.90;;;;;;4950289;28;20058;-58
2023/10/09 10:03:43;;;;;;;24.52;9.85;;;17.00;99.90;;;;;;4968353;28;20117;-58
2023/10/09 10:06:12;;;;;;;31.60;11.05;;;17.10;99.90;;;;;;4964680;28;20486;-58
2023/10/09 10:08:39;;;;;;;29.67;9.60;;;17.10;99.90;;;;;;4963591;28;20047;-58
2023/10/09 10:11:05;;;;;;;29.20;9.48;;;17.10;99.90;;;;;;4949975;28;20062;-59
2023/10/09 10:13:40;;;;;;;24.55;10.05;;;17.10;99.90;;;;;;4966938;28;20380;-58
2023/10/09 10:16:19;;;;;;;27.98;9.68;;;17.10;99.90;;;;;;4964317;28;20043;-58
2023/10/09 10:19:14;;;;;;;23.95;9.45;;;17.10;99.90;;;;;;4964902;28;20047;-58
2023/10/09 10:24:28;;;;;;;24.08;8.18;;;17.10;99.90;;;;;;4947971;28;20054;-57
2023/10/09 10:27:26;;;;;;;24.83;9.65;;;17.10;99.90;;;;;;4960394;28;20445;-59
2023/10/09 10:30:13;;;;;;;24.60;9.18;;;17.10;99.90;;;;;;4963566;28;20051;-58
2023/10/09 10:32:58;;;;;;;24.05;7.28;;;17.20;99.90;;;;;;4968281;28;20058;-57
2023/10/09 10:35:39;;;;;;;20.85;8.02;;;17.10;99.90;;;;;;4967342;28;20620;-58
2023/10/09 10:38:42;;;;;;;25.38;8.88;;;17.20;99.90;;;;;;4968242;28;20042;-59
2023/10/09 10:41:12;;;;;;;26.70;9.10;;;17.30;99.90;;;;;;4968243;28;20050;-59
2023/10/09 10:43:47;;;;;;;21.30;8.68;;;17.30;99.90;;;;;;4986225;28;20112;-57
2023/10/09 10:48:59;;;;;;;28.25;9.48;;;17.40;99.90;;;;;;4969159;28;20047;-59
2023/10/09 10:51:37;;;;;;;18.48;8.95;;;17.40;99.90;;;;;;4965865;28;20482;-58
2023/10/09 10:56:51;;;;;;;19.35;7.05;;;17.50;99.90;;;;;;4967265;28;20058;-56
2023/10/09 10:59:25;;;;;;;17.75;7.18;;;17.50;99.90;;;;;;4950206;28;20486;-57
2023/10/09 11:02:22;;;;;;;18.52;6.90;;;17.40;99.90;;;;;;4952409;28;20189;-58
2023/10/09 11:04:41;;;;;;;14.45;5.82;;;17.40;99.90;;;;;;4964004;28;20051;-55
2023/10/09 11:07:12;;;;;;;16.88;5.53;;;17.40;99.90;;;;;;4966511;28;20291;-58
2023/10/09 11:18:09;;;;;;;12.52;4.57;;;17.30;99.90;;;;;;4965070;28;20156;-57
2023/10/09 11:20:38;;;;;;;24.65;5.22;;;17.30;99.90;;;;;;4963087;28;20447;-58
2023/10/09 11:25:50;;;;;;;15.30;5.68;;;17.30;99.90;;;;;;4968009;28;20074;-57
2023/10/09 11:28:42;;;;;;;16.77;5.32;;;17.30;99.90;;;;;;4967338;28;20446;-58
2023/10/09 11:31:12;;;;;;;12.43;4.47;;;17.30;99.90;;;;;;4966680;28;20058;-59
2023/10/09 11:33:43;;;;;;;12.65;4.28;;;17.20;99.90;;;;;;4969055;28;20046;-59
2023/10/09 11:36:09;;;;;;;18.73;5.10;;;17.20;99.90;;;;;;4966733;28;20050;-59
2023/10/09 11:38:36;;;;;;;16.17;4.85;;;17.30;99.90;;;;;;4970220;28;20039;-57
2023/10/09 11:41:18;;;;;;;14.50;4.85;;;17.30;99.90;;;;;;4968587;28;20170;-55
2023/10/09 11:43:54;;;;;;;18.80;5.05;;;17.30;99.90;;;;;;4965548;28;20256;-57
2023/10/09 11:54:33;;;;;;;15.25;4.95;;;17.60;99.90;;;;;;4981985;28;20132;-57
2023/10/09 11:57:01;;;;;;;12.05;3.90;;;17.60;99.90;;;;;;4969612;28;20124;-57
2023/10/09 11:59:27;;;;;;;13.40;3.72;;;17.60;99.90;;;;;;4968983;28;20442;-57
2023/10/09 12:02:00;;;;;;;14.07;4.00;;;17.70;99.90;;;;;;4966763;28;20078;-57
2023/10/09 12:04:30;;;;;;;13.32;4.97;;;17.70;99.90;;;;;;4967198;28;20050;-58
2023/10/09 12:07:08;;;;;;;11.93;4.32;;;17.70;99.90;;;;;;4949077;28;20054;-56
2023/10/09 12:09:34;;;;;;;11.90;4.35;;;17.60;99.90;;;;;;4964752;28;20450;-58
2023/10/09 12:12:02;;;;;;;14.50;5.07;;;17.70;99.90;;;;;;4967456;28;20047;-57
2023/10/09 12:14:33;;;;;;;12.13;4.72;;;17.70;99.90;;;;;;4951709;28;20517;-57
2023/10/09 12:17:05;;;;;;;16.50;4.70;;;17.70;99.90;;;;;;4948411;28;20093;-57
2023/10/09 12:19:35;;;;;;;15.60;4.75;;;17.70;99.90;;;;;;4966741;28;20126;-58
2023/10/09 12:22:03;;;;;;;14.25;4.88;;;17.80;99.90;;;;;;4966799;28;20067;-58
2023/10/09 12:24:30;;;;;;;12.75;3.97;;;17.90;99.90;;;;;;4969438;28;20548;-57
2023/10/09 12:26:57;;;;;;;15.20;4.43;;;17.90;99.90;;;;;;4969562;28;20046;-58
2023/10/09 12:29:23;;;;;;;14.93;4.65;;;17.80;99.90;;;;;;4967660;28;20049;-59
2023/10/09 12:31:58;;;;;;;14.05;3.92;;;17.80;99.90;;;;;;4948016;28;20793;-57
2023/10/09 12:34:26;;;;;;;16.55;4.20;;;17.70;99.90;;;;;;4947165;28;20305;-57
2023/10/09 12:37:00;;;;;;;11.52;3.70;;;17.70;99.90;;;;;;4951558;28;20051;-58
2023/10/09 12:39:33;;;;;;;13.15;4.50;;;17.80;99.90;;;;;;4966602;28;20074;-56
2023/10/09 12:42:06;;;;;;;15.70;4.57;;;17.70;99.90;;;;;;4967700;28;20460;-58
2023/10/09 12:44:40;;;;;;;13.82;4.13;;;17.60;99.90;;;;;;4963657;28;20438;-58
2023/10/09 12:47:07;;;;;;;12.13;4.20;;;17.60;99.90;;;;;;4967279;28;20403;-54
2023/10/09 12:49:33;;;;;;;11.35;4.32;;;17.60;99.90;;;;;;4967641;28;20122;-58
2023/10/09 12:51:59;;;;;;;11.27;4.28;;;17.60;99.90;;;;;;4967592;28;20074;-58
2023/10/09 12:54:28;;;;;;;12.73;4.25;;;17.60;99.90;;;;;;4965026;28;20132;-54
2023/10/09 12:56:57;;;;;;;12.30;4.15;;;17.60;99.90;;;;;;4951151;28;20038;-58
2023/10/09 12:59:24;;;;;;;14.55;3.63;;;17.60;99.90;;;;;;4966366;28;20053;-58
2023/10/09 13:01:57;;;;;;;15.38;4.03;;;17.60;99.90;;;;;;4947147;28;20141;-58
2023/10/09 13:04:23;;;;;;;16.05;4.00;;;17.50;99.90;;;;;;4965708;28;20050;-59
2023/10/09 13:06:54;;;;;;;13.88;4.68;;;17.60;99.90;;;;;;4964538;28;20082;-58
2023/10/09 13:09:34;;;;;;;16.90;4.85;;;17.60;99.90;;;;;;4966480;28;20121;-58
2023/10/09 13:12:00;;;;;;;17.60;4.15;;;17.70;99.90;;;;;;4945774;28;20101;-57
2023/10/09 13:14:27;;;;;;;13.45;3.70;;;17.70;99.90;;;;;;4951077;28;20598;-58
2023/10/09 13:16:53;;;;;;;10.70;4.10;;;17.60;99.90;;;;;;4967432;28;20038;-59
2023/10/09 13:19:19;;;;;;;14.05;4.25;;;17.60;99.90;;;;;;4950703;28;20097;-57
2023/10/09 13:21:46;;;;;;;13.80;4.45;;;17.60;99.90;;;;;;4965863;28;20043;-59
2023/10/09 13:24:15;;;;;;;11.05;4.03;;;17.60;99.90;;;;;;4933745;28;20081;-59
2023/10/09 13:26:46;;;;;;;11.05;3.78;;;17.70;99.90;;;;;;4948471;28;20038;-58
2023/10/09 13:29:13;;;;;;;12.77;4.05;;;17.70;99.90;;;;;;4965122;28;20434;-58
2023/10/09 13:31:46;;;;;;;13.57;4.10;;;17.70;99.90;;;;;;4966670;28;20046;-58
2023/10/09 13:34:15;;;;;;;8.35;3.50;;;17.80;99.90;;;;;;4951346;28;20051;-58
2023/10/09 13:36:49;;;;;;;7.93;3.22;;;17.80;99.90;;;;;;4948587;28;20050;-58
2023/10/09 13:39:25;;;;;;;9.82;2.70;;;17.70;99.90;;;;;;4967559;28;20113;-58
2023/10/09 13:42:07;;;;;;;10.73;3.50;;;17.70;99.90;;;;;;4951341;28;20493;-57
2023/10/09 13:44:34;;;;;;;7.35;3.00;;;17.70;99.90;;;;;;4964314;28;20422;-58
2023/10/09 13:47:02;;;;;;;7.80;3.08;;;17.70;99.90;;;;;;4965781;28;20213;-58
2023/10/09 13:49:31;;;;;;;8.95;3.67;;;17.60;99.90;;;;;;4966836;28;20047;-58
2023/10/09 13:51:58;;;;;;;9.25;3.58;;;17.60;99.90;;;;;;4964108;28;20676;-58
2023/10/09 13:57:07;;;;;;;11.27;3.50;;;17.60;99.90;;;;;;4963870;28;20043;-59
2023/10/09 13:59:36;;;;;;;13.75;3.33;;;17.60;99.90;;;;;;4949602;28;20031;-60
2023/10/09 14:02:09;;;;;;;11.15;3.60;;;17.60;99.90;;;;;;4949955;28;20134;-57
2023/10/09 14:04:35;;;;;;;10.05;3.53;;;17.60;99.90;;;;;;4966264;28;20109;-59
2023/10/09 14:07:01;;;;;;;10.02;3.30;;;17.60;99.90;;;;;;4965262;28;20712;-57
2023/10/09 14:09:30;;;;;;;9.45;3.25;;;17.60;99.90;;;;;;4969071;28;20089;-58
2023/10/09 14:12:09;;;;;;;8.52;3.33;;;17.60;99.90;;;;;;4970641;28;20054;-58
2023/10/09 14:14:48;;;;;;;10.05;3.90;;;17.50;99.90;;;;;;4970215;28;20039;-56
2023/10/09 14:17:23;;;;;;;7.30;3.30;;;17.50;99.90;;;;;;4968665;28;20078;-57
2023/10/09 14:19:51;;;;;;;8.45;3.33;;;17.50;99.90;;;;;;4969775;28;20038;-58
2023/10/09 14:22:27;;;;;;;9.00;2.90;;;17.50;99.90;;;;;;4984721;28;20184;-56
2023/10/09 14:24:59;;;;;;;10.75;3.13;;;17.50;99.90;;;;;;4968854;28;20056;-58
2023/10/09 14:27:29;;;;;;;7.25;2.80;;;17.50;99.90;;;;;;4970017;28;20760;-58
2023/10/09 14:30:01;;;;;;;13.98;3.67;;;17.50;99.90;;;;;;4954115;28;20042;-58
2023/10/09 14:32:34;;;;;;;11.85;3.30;;;17.50;99.90;;;;;;4955325;28;20375;-59
2023/10/09 14:35:02;;;;;;;6.82;3.03;;;17.50;99.90;;;;;;4967804;28;20399;-59
2023/10/09 14:37:28;;;;;;;7.32;2.92;;;17.50;99.90;;;;;;4965788;28;20066;-59
2023/10/09 14:39:56;;;;;;;7.25;2.90;;;17.50;99.90;;;;;;4963433;28;20101;-59
2023/10/09 14:42:24;;;;;;;7.38;2.90;;;17.60;99.90;;;;;;4948060;28;20458;-58
2023/10/09 14:44:50;;;;;;;8.30;2.92;;;17.60;99.90;;;;;;4967529;28;20414;-59
2023/10/09 14:47:18;;;;;;;14.02;3.33;;;17.60;99.90;;;;;;4971124;28;20042;-56
2023/10/09 14:49:47;;;;;;;10.40;3.25;;;17.60;99.90;;;;;;4968006;28;20398;-56
2023/10/09 14:52:16;;;;;;;10.30;3.28;;;17.60;99.90;;;;;;4966240;28;20118;-58
2023/10/09 14:54:46;;;;;;;7.28;3.05;;;17.60;99.90;;;;;;4968588;28;20050;-57
2023/10/09 14:57:12;;;;;;;9.82;2.85;;;17.60;99.90;;;;;;4969461;28;20050;-58
2023/10/09 14:59:39;;;;;;;9.13;3.85;;;17.50;99.90;;;;;;4962267;28;20054;-58
2023/10/09 15:02:05;;;;;;;14.13;3.17;;;17.50;99.90;;;;;;4967074;28;20522;-57
2023/10/09 15:04:35;;;;;;;10.15;3.20;;;17.50;99.90;;;;;;4953295;28;20043;-59
2023/10/09 15:07:01;;;;;;;10.32;3.33;;;17.50;99.90;;;;;;4966608;28;20110;-58
2023/10/09 15:09:29;;;;;;;6.03;3.22;;;17.50;99.90;;;;;;4953026;28;20035;-59
2023/10/09 15:11:55;;;;;;;6.90;3.20;;;17.50;99.90;;;;;;4968396;28;20144;-56
2023/10/09 15:14:21;;;;;;;9.32;3.08;;;17.50;99.90;;;;;;4969769;28;20085;-58
2023/10/09 15:16:48;;;;;;;12.85;3.53;;;17.40;99.90;;;;;;4946150;28;20031;-58
2023/10/09 15:19:16;;;;;;;6.40;2.65;;;17.40;99.90;;;;;;4952870;28;20418;-56
2023/10/09 15:21:45;;;;;;;8.73;3.30;;;17.40;99.90;;;;;;4966825;28;20066;-59
2023/10/09 15:24:15;;;;;;;7.50;2.60;;;17.40;99.90;;;;;;4968065;28;20046;-59
2023/10/09 15:26:56;;;;;;;8.30;2.72;;;17.40;99.90;;;;;;4952680;28;20093;-58
2023/10/09 15:29:27;;;;;;;7.70;2.97;;;17.30;99.90;;;;;;4970698;28;20494;-58
2023/10/09 15:32:04;;;;;;;6.90;2.83;;;17.30;99.90;;;;;;4968915;28;20051;-57
2023/10/09 15:34:31;;;;;;;7.28;3.03;;;17.30;99.90;;;;;;4967630;28;20046;-58
2023/10/09 15:36:57;;;;;;;9.27;3.17;;;17.30;99.90;;;;;;4950361;28;20082;-58